createdAt,value
2023-02-03T00:01:36.330Z,100.00
2023-02-03T00:04:02.712Z,99.08
2023-02-03T00:06:29.168Z,98.05
2023-02-03T00:08:55.603Z,98.67
2023-02-03T00:11:22.011Z,99.52
2023-02-03T00:13:48.320Z,99.40
2023-02-03T00:16:14.675Z,100.00
2023-02-03T00:18:41.015Z,99.71
2023-02-03T00:21:07.399Z,100.00
2023-02-03T00:23:33.756Z,100.00
2023-02-03T00:26:00.161Z,100.00
2023-02-03T00:28:28.521Z,99.36
2023-02-03T00:30:54.876Z,100.00
2023-02-03T00:33:21.203Z,99.61
2023-02-03T00:35:47.570Z,98.97
2023-02-03T00:38:14.007Z,99.36
2023-02-03T00:40:40.326Z,100.00
2023-02-03T00:43:06.638Z,100.00
2023-02-03T00:45:32.983Z,100.00
2023-02-03T00:47:59.358Z,100.00
2023-02-03T00:50:25.940Z,100.00
2023-02-03T00:52:52.458Z,100.00
2023-02-03T00:55:18.797Z,100.00
2023-02-03T00:57:45.181Z,100.00
2023-02-03T01:00:11.592Z,100.00
2023-02-03T01:02:38.015Z,100.00
2023-02-03T01:05:04.346Z,100.00
2023-02-03T01:07:30.672Z,100.00
2023-02-03T01:09:56.995Z,100.00
2023-02-03T01:12:23.308Z,100.00
2023-02-03T01:14:49.605Z,100.00
2023-02-03T01:17:15.917Z,100.00
2023-02-03T01:19:42.219Z,100.00
2023-02-03T01:22:08.563Z,100.00
2023-02-03T01:24:34.869Z,100.00
2023-02-03T01:27:01.206Z,100.00
2023-02-03T01:29:27.523Z,100.00
2023-02-03T01:31:53.990Z,100.00
2023-02-03T01:34:20.732Z,100.00
2023-02-03T01:36:47.084Z,100.00
2023-02-03T01:39:13.464Z,100.00
2023-02-03T01:41:39.783Z,100.00
2023-02-03T01:44:06.255Z,100.00
2023-02-03T01:46:32.611Z,100.00
2023-02-03T01:48:58.945Z,100.00
2023-02-03T01:51:25.283Z,100.00
2023-02-03T01:53:51.624Z,100.00
2023-02-03T01:56:17.945Z,100.00
2023-02-03T01:58:44.268Z,100.00
2023-02-03T02:01:10.644Z,100.00
2023-02-03T02:03:36.987Z,100.00
2023-02-03T02:06:03.312Z,100.00
2023-02-03T02:08:29.637Z,100.00
2023-02-03T02:10:55.961Z,100.00
2023-02-03T02:13:22.364Z,100.00
2023-02-03T02:15:48.749Z,100.00
2023-02-03T02:18:15.076Z,100.00
2023-02-03T02:20:41.406Z,100.00
2023-02-03T02:23:07.739Z,100.00
2023-02-03T02:25:34.053Z,100.00
2023-02-03T02:28:00.452Z,100.00
2023-02-03T02:30:27.182Z,100.00
2023-02-03T02:32:53.713Z,100.00
2023-02-03T02:35:20.050Z,100.00
2023-02-03T02:37:46.383Z,100.00
2023-02-03T02:40:12.711Z,100.00
2023-02-03T02:42:39.036Z,100.00
2023-02-03T02:45:05.355Z,100.00
2023-02-03T02:47:31.719Z,100.00
2023-02-03T02:49:58.029Z,100.00
2023-02-03T02:52:24.362Z,100.00
2023-02-03T02:54:50.688Z,100.00
2023-02-03T02:57:17.000Z,100.00
2023-02-03T02:59:43.346Z,100.00
2023-02-03T03:02:09.685Z,100.00
2023-02-03T03:04:36.134Z,100.00
2023-02-03T03:07:02.981Z,100.00
2023-02-03T03:09:29.797Z,100.00
2023-02-03T03:11:56.104Z,100.00
2023-02-03T03:14:22.455Z,100.00
2023-02-03T03:16:48.853Z,100.00
2023-02-03T03:19:15.188Z,100.00
2023-02-03T03:21:41.525Z,100.00
2023-02-03T03:24:07.858Z,100.00
2023-02-03T03:26:34.299Z,100.00
2023-02-03T03:29:00.618Z,100.00
2023-02-03T03:31:27.150Z,100.00
2023-02-03T03:33:53.547Z,100.00
2023-02-03T03:36:19.901Z,100.00
2023-02-03T03:38:46.263Z,100.00
2023-02-03T03:41:12.575Z,100.00
2023-02-03T03:43:39.161Z,100.00
2023-02-03T03:46:05.487Z,100.00
2023-02-03T03:48:31.813Z,100.00
2023-02-03T03:50:58.161Z,100.00
2023-02-03T03:53:24.518Z,100.00
2023-02-03T03:55:50.828Z,100.00
2023-02-03T03:58:17.142Z,100.00
2023-02-03T04:00:43.455Z,100.00
2023-02-03T04:03:09.837Z,100.00
2023-02-03T04:05:36.186Z,100.00
2023-02-03T04:08:03.878Z,100.00
2023-02-03T04:10:30.207Z,100.00
2023-02-03T04:12:56.513Z,100.00
2023-02-03T04:15:22.910Z,100.00
2023-02-03T04:17:49.409Z,100.00
2023-02-03T04:20:15.796Z,100.00
2023-02-03T04:22:42.138Z,100.00
2023-02-03T04:25:08.475Z,100.00
2023-02-03T04:27:34.807Z,100.00
2023-02-03T04:30:01.151Z,100.00
2023-02-03T04:32:27.541Z,100.00
2023-02-03T04:34:53.866Z,100.00
2023-02-03T04:37:21.221Z,100.00
2023-02-03T04:39:47.564Z,100.00
2023-02-03T04:42:13.878Z,100.00
2023-02-03T04:44:40.210Z,100.00
2023-02-03T04:47:06.808Z,100.00
2023-02-03T04:49:33.173Z,100.00
2023-02-03T04:51:59.555Z,100.00
2023-02-03T04:54:25.855Z,100.00
2023-02-03T04:56:52.189Z,100.00
2023-02-03T04:59:18.514Z,100.00
2023-02-03T05:01:44.835Z,100.00
2023-02-03T05:04:11.143Z,100.00
2023-02-03T05:06:37.496Z,100.00
2023-02-03T05:09:03.824Z,100.00
2023-02-03T05:11:30.246Z,100.00
2023-02-03T05:13:56.581Z,100.00
2023-02-03T05:16:23.134Z,100.00
2023-02-03T05:18:49.489Z,100.00
2023-02-03T05:21:15.828Z,100.00
2023-02-03T05:23:42.149Z,100.00
2023-02-03T05:26:08.473Z,100.00
2023-02-03T05:28:34.835Z,100.00
2023-02-03T05:31:01.550Z,100.00
2023-02-03T05:33:27.928Z,100.00
2023-02-03T05:35:54.239Z,100.00
2023-02-03T05:38:20.586Z,100.00
2023-02-03T05:41:05.824Z,100.00
2023-02-03T05:43:32.131Z,100.00
2023-02-03T05:45:58.515Z,100.00
2023-02-03T05:48:24.855Z,100.00
2023-02-03T05:50:51.178Z,100.00
2023-02-03T05:53:17.493Z,100.00
2023-02-03T05:55:43.848Z,100.00
2023-02-03T05:58:10.181Z,100.00
2023-02-03T06:00:36.523Z,100.00
2023-02-03T06:03:02.897Z,100.00
2023-02-03T06:05:29.239Z,100.00
2023-02-03T06:07:55.575Z,100.00
2023-02-03T06:10:21.927Z,100.00
2023-02-03T06:12:48.241Z,100.00
2023-02-03T06:15:14.546Z,100.00
2023-02-03T06:17:40.969Z,100.00
2023-02-03T06:20:07.325Z,100.00
2023-02-03T06:22:33.644Z,100.00
2023-02-03T06:24:59.978Z,100.00
2023-02-03T06:27:26.290Z,100.00
2023-02-03T06:29:52.610Z,100.00
2023-02-03T06:32:18.925Z,100.00
2023-02-03T06:34:45.271Z,100.00
2023-02-03T06:37:11.607Z,100.00
2023-02-03T06:39:37.948Z,100.00
2023-02-03T06:42:04.307Z,100.00
2023-02-03T06:44:30.636Z,100.00
2023-02-03T06:46:58.802Z,100.00
2023-02-03T06:49:25.114Z,100.00
2023-02-03T06:51:52.552Z,100.00
2023-02-03T06:54:18.906Z,100.00
2023-02-03T06:56:45.216Z,100.00
2023-02-03T06:59:11.530Z,100.00
2023-02-03T07:01:37.944Z,100.00
2023-02-03T07:04:04.480Z,100.00
2023-02-03T07:06:33.890Z,100.00
2023-02-03T07:09:01.815Z,100.00
2023-02-03T07:11:28.305Z,100.00
2023-02-03T07:13:54.672Z,100.00
2023-02-03T07:16:21.063Z,100.00
2023-02-03T07:18:48.186Z,100.00
2023-02-03T07:21:14.650Z,100.00
2023-02-03T07:23:40.969Z,100.00
2023-02-03T07:26:07.287Z,100.00
2023-02-03T07:28:33.595Z,100.00
2023-02-03T07:31:01.092Z,100.00
2023-02-03T07:33:27.743Z,100.00
2023-02-03T07:35:54.098Z,100.00
2023-02-03T07:38:20.439Z,98.37
2023-02-03T07:40:46.777Z,98.01
2023-02-03T07:43:13.109Z,97.43
2023-02-03T07:45:39.452Z,97.90
2023-02-03T07:48:05.769Z,98.35
2023-02-03T07:50:33.467Z,99.57
2023-02-03T07:52:59.854Z,99.42
2023-02-03T07:55:26.201Z,99.72
2023-02-03T07:57:52.585Z,100.00
2023-02-03T08:00:18.916Z,100.00
2023-02-03T08:02:45.265Z,100.00
2023-02-03T08:05:11.701Z,100.00
2023-02-03T08:07:38.092Z,100.00
2023-02-03T08:10:04.398Z,100.00
2023-02-03T08:12:30.721Z,100.00
2023-02-03T08:14:57.055Z,100.00
2023-02-03T08:17:23.435Z,100.00
2023-02-03T08:19:49.759Z,100.00
2023-02-03T08:22:16.193Z,100.00
2023-02-03T08:24:45.757Z,100.00
2023-02-03T08:27:12.138Z,100.00
2023-02-03T08:29:38.472Z,100.00
2023-02-03T08:32:06.053Z,100.00
2023-02-03T08:34:34.244Z,100.00
2023-02-03T08:37:00.582Z,100.00
2023-02-03T08:39:27.045Z,100.00
2023-02-03T08:41:53.372Z,100.00
2023-02-03T08:44:20.036Z,100.00
2023-02-03T08:46:46.358Z,100.00
2023-02-03T08:49:12.719Z,100.00
2023-02-03T08:51:39.140Z,100.00
2023-02-03T08:54:05.547Z,100.00
2023-02-03T08:56:31.957Z,100.00
2023-02-03T08:58:58.253Z,100.00
2023-02-03T09:01:24.624Z,100.00
2023-02-03T09:03:50.972Z,100.00
2023-02-03T09:06:17.322Z,100.00
2023-02-03T09:08:43.878Z,100.00
2023-02-03T09:11:10.216Z,100.00
2023-02-03T09:13:36.821Z,100.00
2023-02-03T09:16:03.172Z,100.00
2023-02-03T09:18:29.644Z,100.00
2023-02-03T09:20:55.956Z,100.00
2023-02-03T09:23:22.360Z,100.00
2023-02-03T09:25:49.615Z,100.00
2023-02-03T09:28:16.047Z,100.00
2023-02-03T09:30:42.435Z,100.00
2023-02-03T09:33:08.850Z,100.00
2023-02-03T09:35:35.168Z,100.00
2023-02-03T09:38:01.505Z,100.00
2023-02-03T09:40:28.557Z,100.00
2023-02-03T09:42:55.121Z,100.00
2023-02-03T09:45:21.468Z,100.00
2023-02-03T09:47:54.134Z,100.00
2023-02-03T09:50:20.931Z,100.00
2023-02-03T09:52:47.675Z,100.00
2023-02-03T09:55:14.014Z,100.00
2023-02-03T09:57:40.361Z,100.00
2023-02-03T10:00:06.677Z,100.00
2023-02-03T10:02:33.117Z,100.00
2023-02-03T10:04:59.450Z,100.00
2023-02-03T10:07:25.779Z,100.00
2023-02-03T10:09:52.097Z,100.00
2023-02-03T10:12:18.464Z,100.00
2023-02-03T10:14:44.803Z,100.00
2023-02-03T10:17:11.189Z,100.00
2023-02-03T10:19:37.557Z,100.00
2023-02-03T10:22:03.901Z,100.00
2023-02-03T10:24:30.236Z,100.00
2023-02-03T10:26:56.570Z,100.00
2023-02-03T10:29:23.013Z,100.00
2023-02-03T10:31:49.813Z,100.00
2023-02-03T10:34:16.260Z,100.00
2023-02-03T10:36:42.658Z,100.00
2023-02-03T10:39:08.958Z,100.00
2023-02-03T10:41:35.294Z,100.00
2023-02-03T10:44:01.678Z,100.00
2023-02-03T10:46:28.208Z,100.00
2023-02-03T10:48:54.649Z,100.00
2023-02-03T10:51:21.033Z,100.00
2023-02-03T10:53:47.399Z,100.00
2023-02-03T10:56:13.740Z,100.00
2023-02-03T10:58:40.081Z,100.00
2023-02-03T11:01:06.588Z,100.00
2023-02-03T11:03:33.060Z,100.00
2023-02-03T11:05:59.416Z,100.00
2023-02-03T11:08:25.740Z,100.00
2023-02-03T11:10:52.066Z,100.00
2023-02-03T11:13:19.393Z,100.00
2023-02-03T11:15:45.905Z,100.00
2023-02-03T11:18:12.246Z,100.00
2023-02-03T11:20:38.584Z,100.00
2023-02-03T11:23:04.905Z,100.00
2023-02-03T11:25:31.244Z,100.00
2023-02-03T11:27:57.622Z,100.00
2023-02-03T11:30:24.318Z,100.00
2023-02-03T11:32:50.634Z,100.00
2023-02-03T11:35:16.959Z,100.00
2023-02-03T11:37:43.362Z,100.00
2023-02-03T11:40:12.827Z,100.00
2023-02-03T11:42:39.148Z,100.00
2023-02-03T11:45:05.474Z,100.00
2023-02-03T11:47:31.832Z,100.00
2023-02-03T11:49:58.151Z,100.00
2023-02-03T11:52:24.489Z,100.00
2023-02-03T11:54:50.825Z,100.00
2023-02-03T11:57:17.197Z,100.00
2023-02-03T11:59:43.557Z,100.00
2023-02-03T12:02:10.250Z,100.00
2023-02-03T12:04:36.702Z,100.00
2023-02-03T12:07:03.047Z,100.00
2023-02-03T12:09:29.375Z,100.00
2023-02-03T12:11:55.690Z,100.00
2023-02-03T12:14:22.018Z,100.00
2023-02-03T12:19:20.373Z,100.00
2023-02-03T12:21:47.585Z,100.00
2023-02-03T12:24:13.961Z,100.00
2023-02-03T12:26:40.312Z,100.00
2023-02-03T12:29:06.625Z,100.00
2023-02-03T12:31:33.006Z,100.00
2023-02-03T12:33:59.851Z,100.00
2023-02-03T12:36:26.207Z,100.00
2023-02-03T12:38:52.583Z,100.00
2023-02-03T12:41:18.920Z,100.00
2023-02-03T12:43:49.347Z,100.00
2023-02-03T12:46:15.769Z,100.00
2023-02-03T12:48:42.170Z,100.00
2023-02-03T12:51:08.518Z,100.00
2023-02-03T12:53:34.906Z,100.00
2023-02-03T12:56:02.950Z,100.00
2023-02-03T12:58:29.248Z,100.00
2023-02-03T13:00:55.622Z,100.00
2023-02-03T13:03:21.947Z,100.00
2023-02-03T13:05:48.377Z,100.00
2023-02-03T13:08:14.716Z,100.00
2023-02-03T13:10:41.982Z,100.00
2023-02-03T13:13:09.303Z,100.00
2023-02-03T13:15:35.630Z,100.00
2023-02-03T13:18:01.928Z,100.00
2023-02-03T13:20:31.288Z,100.00
2023-02-03T13:22:57.824Z,100.00
2023-02-03T13:25:24.149Z,100.00
2023-02-03T13:27:50.537Z,100.00
2023-02-03T13:30:16.916Z,96.24
2023-02-03T13:32:43.254Z,96.30
2023-02-03T13:35:09.595Z,95.51
2023-02-03T13:37:35.921Z,95.53
2023-02-03T13:40:02.445Z,95.04
2023-02-03T13:42:28.808Z,97.25
2023-02-03T13:44:55.151Z,96.21
2023-02-03T13:47:21.479Z,97.22
2023-02-03T13:49:48.450Z,94.66
2023-02-03T13:52:16.017Z,90.83
2023-02-03T13:54:42.432Z,89.45
2023-02-03T13:57:08.752Z,87.47
2023-02-03T13:59:35.155Z,86.81
2023-02-03T14:02:01.482Z,83.51
2023-02-03T14:04:27.854Z,83.13
2023-02-03T14:06:54.237Z,82.64
2023-02-03T14:09:20.617Z,82.91
2023-02-03T14:11:47.041Z,83.13
2023-02-03T14:14:13.391Z,82.35
2023-02-03T14:16:39.876Z,81.67
2023-02-03T14:19:06.244Z,79.30
2023-02-03T14:21:32.594Z,80.78
2023-02-03T14:23:59.123Z,78.33
2023-02-03T14:26:25.536Z,77.21
2023-02-03T14:28:53.843Z,79.48
2023-02-03T14:31:20.685Z,79.22
2023-02-03T14:33:47.101Z,80.18
2023-02-03T14:36:13.412Z,79.81
2023-02-03T14:38:40.100Z,80.72
2023-02-03T14:41:06.457Z,78.51
2023-02-03T14:43:32.899Z,78.08
2023-02-03T14:45:59.353Z,78.96
2023-02-03T14:48:25.852Z,79.18
2023-02-03T14:50:52.356Z,77.37
2023-02-03T14:53:18.662Z,78.68
2023-02-03T14:55:45.423Z,78.87
2023-02-03T14:58:11.738Z,79.56
2023-02-03T15:00:38.227Z,80.12
2023-02-03T15:03:04.590Z,80.42
2023-02-03T15:05:31.104Z,80.57
2023-02-03T15:07:57.540Z,79.94
2023-02-03T15:10:23.860Z,80.52
2023-02-03T15:12:50.240Z,81.79
2023-02-03T15:15:16.619Z,81.92
2023-02-03T15:17:43.009Z,82.50
2023-02-03T15:20:09.331Z,82.79
2023-02-03T15:22:35.676Z,83.38
2023-02-03T15:25:05.087Z,83.54
2023-02-03T15:27:31.415Z,84.54
2023-02-03T15:29:59.271Z,83.30
2023-02-03T15:32:27.976Z,83.22
2023-02-03T15:34:55.315Z,83.38
2023-02-03T15:37:21.661Z,82.91
2023-02-03T15:39:48.002Z,82.42
2023-02-03T15:42:16.251Z,80.94
2023-02-03T15:44:42.597Z,82.31
2023-02-03T15:47:08.969Z,80.76
2023-02-03T15:49:35.357Z,79.85
2023-02-03T15:52:01.700Z,80.41
2023-02-03T15:54:30.605Z,78.89
2023-02-03T15:56:57.674Z,78.60
2023-02-03T15:59:24.042Z,79.53
2023-02-03T16:01:50.416Z,79.04
2023-02-03T16:04:16.781Z,78.91
2023-02-03T16:06:45.139Z,79.64
2023-02-03T16:09:11.519Z,78.42
2023-02-03T16:11:37.879Z,77.93
2023-02-03T16:14:04.213Z,78.82
2023-02-03T16:16:30.712Z,78.56
2023-02-03T16:18:57.190Z,78.83
2023-02-03T16:21:23.535Z,78.32
2023-02-03T16:23:49.863Z,78.16
2023-02-03T16:26:17.178Z,76.96
2023-02-03T16:29:02.439Z,77.29
2023-02-03T16:31:47.332Z,77.78
2023-02-03T16:34:32.595Z,76.27
2023-02-03T16:37:17.686Z,76.83
2023-02-03T16:40:04.278Z,76.49
2023-02-03T16:42:49.360Z,75.05
2023-02-03T16:45:34.705Z,74.16
2023-02-03T16:48:19.848Z,75.22
2023-02-03T16:50:58.979Z,73.54
2023-02-03T16:53:25.767Z,74.14
2023-02-03T16:55:52.111Z,74.29
2023-02-03T16:58:18.435Z,74.48
2023-02-03T17:00:44.931Z,75.04
2023-02-03T17:03:11.330Z,75.26
2023-02-03T17:05:38.011Z,73.79
2023-02-03T17:08:04.339Z,72.97
2023-02-03T17:10:30.654Z,72.71
2023-02-03T17:12:57.027Z,72.69
2023-02-03T17:15:23.336Z,72.46
2023-02-03T17:17:49.680Z,73.29
2023-02-03T17:20:15.989Z,73.76
2023-02-03T17:22:42.305Z,73.80
2023-02-03T17:25:08.619Z,73.94
2023-02-03T17:27:34.947Z,73.27
2023-02-03T17:30:01.464Z,73.43
2023-02-03T17:32:27.997Z,72.54
2023-02-03T17:34:54.320Z,73.17
2023-02-03T17:37:20.687Z,72.41
2023-02-03T17:53:28.957Z,73.30
2023-02-03T17:55:55.261Z,73.06
2023-02-03T17:58:21.742Z,72.86
2023-02-03T18:00:48.095Z,71.35
2023-02-03T18:03:14.467Z,71.34
2023-02-03T18:05:40.829Z,70.48
2023-02-03T18:08:16.104Z,69.31
2023-02-03T18:10:43.047Z,69.94
2023-02-03T18:13:09.686Z,68.79
2023-02-03T18:15:37.949Z,68.32
2023-02-03T18:18:04.285Z,69.31
2023-02-03T18:20:30.826Z,67.33
2023-02-03T18:22:57.244Z,67.11
2023-02-03T18:25:23.550Z,67.38
2023-02-03T18:27:49.879Z,66.97
2023-02-03T18:30:18.372Z,66.64
2023-02-03T18:32:44.739Z,66.43
2023-02-03T18:35:17.228Z,66.31
2023-02-03T18:37:43.621Z,65.91
2023-02-03T18:40:09.990Z,65.58
2023-02-03T18:42:36.354Z,65.08
2023-02-03T18:45:06.085Z,66.24
2023-02-03T18:47:32.500Z,66.70
2023-02-03T18:49:58.824Z,67.33
2023-02-03T18:52:25.140Z,66.60
2023-02-03T18:54:51.882Z,66.53
2023-02-03T18:57:18.181Z,66.94
2023-02-03T18:59:44.807Z,67.22
2023-02-03T19:02:11.277Z,67.46
2023-02-03T19:04:37.628Z,67.62
2023-02-03T19:07:03.971Z,68.12
2023-02-03T19:09:30.336Z,68.23
2023-02-03T19:11:59.874Z,70.09
2023-02-03T19:14:26.266Z,71.80
2023-02-03T19:16:53.191Z,71.78
2023-02-03T19:19:19.536Z,70.79
2023-02-03T19:21:45.909Z,71.05
2023-02-03T19:24:12.285Z,71.51
2023-02-03T19:26:38.627Z,70.50
2023-02-03T19:29:04.948Z,70.04
2023-02-03T19:31:31.444Z,70.52
2023-02-03T19:33:58.888Z,70.16
2023-02-03T19:36:25.369Z,69.78
2023-02-03T19:38:51.677Z,70.61
2023-02-03T19:41:18.007Z,70.34
2023-02-03T19:43:44.753Z,70.62
2023-02-03T19:46:11.714Z,70.54
2023-02-03T19:48:38.589Z,70.07
2023-02-03T19:51:04.946Z,70.34
2023-02-03T19:53:31.354Z,71.87
2023-02-03T19:55:57.690Z,72.54
2023-02-03T19:58:24.220Z,72.47
2023-02-03T20:00:50.560Z,73.43
2023-02-03T20:03:20.058Z,75.22
2023-02-03T20:05:46.763Z,78.42
2023-02-03T20:08:14.964Z,79.85
2023-02-03T20:10:41.909Z,81.23
2023-02-03T20:13:10.180Z,81.16
2023-02-03T20:15:36.508Z,80.97
2023-02-03T20:18:03.140Z,81.93
2023-02-03T20:20:29.715Z,81.58
2023-02-03T20:22:56.152Z,82.04
2023-02-03T20:25:22.537Z,82.39
2023-02-03T20:27:48.907Z,82.17
2023-02-03T20:30:15.277Z,81.75
2023-02-03T20:32:41.592Z,82.09
2023-02-03T20:35:07.968Z,82.70
2023-02-03T20:37:36.189Z,83.60
2023-02-03T20:40:02.939Z,85.43
2023-02-03T20:42:29.237Z,86.55
2023-02-03T20:44:55.570Z,87.61
2023-02-03T20:47:22.994Z,89.41
2023-02-03T20:49:49.766Z,91.00
2023-02-03T20:52:16.209Z,93.82
2023-02-03T20:54:42.688Z,95.38
2023-02-03T20:57:08.998Z,96.43
2023-02-03T20:59:36.150Z,96.34
2023-02-03T21:02:09.696Z,97.41
2023-02-03T21:04:54.873Z,97.07
2023-02-03T21:07:23.003Z,97.11
2023-02-03T21:09:53.173Z,97.18
2023-02-03T21:12:19.550Z,96.56
2023-02-03T21:14:45.952Z,97.05
2023-02-03T21:17:12.270Z,97.78
2023-02-03T21:19:38.633Z,98.09
2023-02-03T21:22:04.969Z,99.90
2023-02-03T21:24:31.317Z,100.00
2023-02-03T21:26:57.693Z,100.00
2023-02-03T21:29:24.046Z,100.00
2023-02-03T21:31:50.389Z,100.00
2023-02-03T21:34:16.735Z,100.00
2023-02-03T21:36:43.063Z,100.00
2023-02-03T21:39:09.383Z,100.00
2023-02-03T21:41:35.768Z,97.59
2023-02-03T21:44:02.140Z,99.04
2023-02-03T21:46:28.561Z,99.12
2023-02-03T21:48:54.946Z,99.52
2023-02-03T21:51:22.567Z,98.59
2023-02-03T21:53:49.005Z,97.79
2023-02-03T21:56:15.342Z,96.54
2023-02-03T21:58:41.642Z,97.26
2023-02-03T22:01:08.102Z,96.87
2023-02-03T22:03:35.514Z,97.04
2023-02-03T22:06:01.821Z,96.79
2023-02-03T22:08:28.138Z,97.56
2023-02-03T22:10:54.463Z,96.59
2023-02-03T22:13:20.798Z,96.18
2023-02-03T22:15:48.948Z,97.43
2023-02-03T22:18:15.796Z,97.14
2023-02-03T22:20:42.194Z,97.90
2023-02-03T22:23:09.141Z,99.99
2023-02-03T22:25:35.477Z,100.00
2023-02-03T22:28:01.869Z,100.00
2023-02-03T22:30:28.462Z,100.00
2023-02-03T22:32:55.038Z,100.00
2023-02-03T22:35:21.385Z,100.00
2023-02-03T22:37:47.787Z,100.00
2023-02-03T22:40:14.184Z,100.00
2023-02-03T22:42:40.590Z,100.00
2023-02-03T22:45:07.278Z,100.00
2023-02-03T22:47:33.860Z,100.00
2023-02-03T22:50:00.235Z,100.00
2023-02-03T22:52:26.573Z,100.00
2023-02-03T22:54:52.944Z,100.00
2023-02-03T22:57:19.302Z,100.00
2023-02-03T22:59:45.655Z,100.00
2023-02-03T23:02:12.018Z,100.00
2023-02-03T23:04:38.447Z,100.00
2023-02-03T23:07:04.796Z,100.00
2023-02-03T23:09:31.222Z,100.00
2023-02-03T23:11:57.640Z,100.00
2023-02-03T23:14:23.941Z,100.00
2023-02-03T23:16:50.425Z,100.00
2023-02-03T23:19:16.733Z,100.00
2023-02-03T23:21:43.140Z,100.00
2023-02-03T23:24:09.445Z,100.00
2023-02-03T23:26:36.888Z,100.00
2023-02-03T23:29:03.201Z,100.00
2023-02-03T23:31:29.944Z,100.00
2023-02-03T23:34:15.232Z,100.00
2023-02-03T23:36:41.554Z,100.00
2023-02-03T23:39:07.891Z,100.00
2023-02-03T23:41:34.206Z,100.00
2023-02-03T23:44:01.030Z,100.00
2023-02-03T23:46:27.401Z,100.00
2023-02-03T23:48:53.744Z,100.00
2023-02-03T23:51:20.049Z,100.00
2023-02-03T23:53:46.370Z,100.00
2023-02-03T23:56:13.920Z,100.00
2023-02-03T23:58:40.273Z,100.00
